Map

Track Data

SID SEASON NUMBER BASIN SUBBASIN NAME ISO_TIME NATURE LAT LON WMO_WIND WMO_PRES WMO_AGENCY TRACK_TYPE DIST2LAND LANDFALL IFLAG USA_AGENCY USA_ATCF_ID USA_LAT USA_LON USA_RECORD USA_STATUS USA_WIND USA_PRES USA_SSHS USA_R34_NE USA_R34_SE USA_R34_SW USA_R34_NW USA_R50_NE USA_R50_SE USA_R50_SW USA_R50_NW USA_R64_NE USA_R64_SE USA_R64_SW USA_R64_NW USA_POCI USA_ROCI USA_RMW USA_EYE TOKYO_LAT TOKYO_LON TOKYO_GRADE TOKYO_WIND TOKYO_PRES TOKYO_R50_DIR TOKYO_R50_LONG TOKYO_R50_SHORT TOKYO_R30_DIR TOKYO_R30_LONG TOKYO_R30_SHORT TOKYO_LAND CMA_LAT CMA_LON CMA_CAT CMA_WIND CMA_PRES HKO_LAT HKO_LON HKO_CAT HKO_WIND HKO_PRES NEWDELHI_LAT NEWDELHI_LON NEWDELHI_GRADE NEWDELHI_WIND NEWDELHI_PRES NEWDELHI_CI NEWDELHI_DP NEWDELHI_POCI REUNION_LAT REUNION_LON REUNION_TYPE REUNION_WIND REUNION_PRES REUNION_TNUM REUNION_CI REUNION_RMW REUNION_R34_NE REUNION_R34_SE REUNION_R34_SW REUNION_R34_NW REUNION_R50_NE REUNION_R50_SE REUNION_R50_SW REUNION_R50_NW REUNION_R64_NE REUNION_R64_SE REUNION_R64_SW REUNION_R64_NW BOM_LAT BOM_LON BOM_TYPE BOM_WIND BOM_PRES BOM_TNUM BOM_CI BOM_RMW BOM_R34_NE BOM_R34_SE BOM_R34_SW BOM_R34_NW BOM_R50_NE BOM_R50_SE BOM_R50_SW BOM_R50_NW BOM_R64_NE BOM_R64_SE BOM_R64_SW BOM_R64_NW BOM_ROCI BOM_POCI BOM_EYE BOM_POS_METHOD BOM_PRES_METHOD NADI_LAT NADI_LON NADI_CAT NADI_WIND NADI_PRES WELLINGTON_LAT WELLINGTON_LON WELLINGTON_WIND WELLINGTON_PRES DS824_LAT DS824_LON DS824_STAGE DS824_WIND DS824_PRES TD9636_LAT TD9636_LON TD9636_STAGE TD9636_WIND TD9636_PRES TD9635_LAT TD9635_LON TD9635_WIND TD9635_PRES TD9635_ROCI NEUMANN_LAT NEUMANN_LON NEUMANN_CLASS NEUMANN_WIND NEUMANN_PRES MLC_LAT MLC_LON MLC_CLASS MLC_WIND MLC_PRES USA_GUST BOM_GUST BOM_GUST_PER REUNION_GUST REUNION_GUST_PER USA_SEAHGT USA_SEARAD_NE USA_SEARAD_SE USA_SEARAD_SW USA_SEARAD_NW STORM_SPEED STORM_DIR
1859042S32050 1859 3 SI MM NOT_NAMED 1859-02-11 06:00:00 NR -31.6000 50.4000 reunion main 796 796 _____O________ -1 -31.6000 50.4000 99 9.90000 3 96
1859042S32050 1859 3 SI MM NOT_NAMED 1859-02-11 09:00:00 NR -31.6129 50.5503 main 805 805 _____P________ -1 -31.6129 50.5503 99 3 96
1859042S32050 1859 3 SI MM NOT_NAMED 1859-02-11 12:00:00 NR -31.6268 50.7019 main 809 809 _____P________ -1 -31.6268 50.7019 99 3 97
1859042S32050 1859 3 SI MM NOT_NAMED 1859-02-11 15:00:00 NR -31.6430 50.8557 main 818 818 _____P________ -1 -31.6430 50.8557 99 3 98
1859042S32050 1859 3 SI MM NOT_NAMED 1859-02-11 18:00:00 NR -31.6626 51.0130 main 833 833 _____P________ -1 -31.6626 51.0130 99 3 99
1859042S32050 1859 3 SI MM NOT_NAMED 1859-02-11 21:00:00 NR -31.6870 51.1749 main 843 843 _____P________ -1 -31.6870 51.1749 99 3 101
1859042S32050 1859 3 SI MM NOT_NAMED 1859-02-12 00:00:00 NR -31.7172 51.3425 main 847 847 _____P________ -1 -31.7172 51.3425 99 3 103
1859042S32050 1859 3 SI MM NOT_NAMED 1859-02-12 03:00:00 NR -31.7545 51.5172 main 867 867 _____P________ -1 -31.7545 51.5172 99 3 105
1859042S32050 1859 3 SI MM NOT_NAMED 1859-02-12 06:00:00 NR -31.8000 51.7000 reunion main 877 877 _____O________ -1 -31.8000 51.7000 99 9.90000 3 107
1859042S32050 1859 3 SI MM NOT_NAMED 1859-02-12 09:00:00 NR -31.8546 51.8916 main 896 896 _____P________ -1 -31.8546 51.8916 99 4 109
1859042S32050 1859 3 SI MM NOT_NAMED 1859-02-12 12:00:00 NR -31.9174 52.0903 main 907 907 _____P________ -1 -31.9174 52.0903 99 4 111
1859042S32050 1859 3 SI MM NOT_NAMED 1859-02-12 15:00:00 NR -31.9872 52.2937 main 927 927 _____P________ -1 -31.9872 52.2937 99 4 113
1859042S32050 1859 3 SI MM NOT_NAMED 1859-02-12 18:00:00 NR -32.0628 52.4996 main 947 947 _____P________ -1 -32.0628 52.4996 99 4 114
1859042S32050 1859 3 SI MM NOT_NAMED 1859-02-12 21:00:00 NR -32.1431 52.7055 main 958 958 _____P________ -1 -32.1431 52.7055 99 4 115
1859042S32050 1859 3 SI MM NOT_NAMED 1859-02-13 00:00:00 NR -32.2268 52.9092 main 978 978 _____P________ -1 -32.2268 52.9092 99 4 117
1859042S32050 1859 3 SI MM NOT_NAMED 1859-02-13 03:00:00 NR -32.3128 53.1081 main 999 999 _____P________ -1 -32.3128 53.1081 99 4 118
1859042S32050 1859 3 SI MM NOT_NAMED 1859-02-13 06:00:00 NR -32.4000 53.3000 reunion main 1019 1019 _____O________ -1 -32.4000 53.3000 99 9.90000 4 119
1859042S32050 1859 3 SI MM NOT_NAMED 1859-02-13 09:00:00 NR -32.4844 53.4729 main 1039 1039 _____P________ -1 -32.4844 53.4729 99 3 121
1859042S32050 1859 3 SI MM NOT_NAMED 1859-02-13 12:00:00 NR -32.5712 53.6389 main 1054 1054 _____P________ -1 -32.5712 53.6389 99 3 122
1859042S32050 1859 3 SI MM NOT_NAMED 1859-02-13 15:00:00 NR -32.6596 53.7999 main 1074 1074 _____P________ -1 -32.6596 53.7999 99 3 124
1859042S32050 1859 3 SI MM NOT_NAMED 1859-02-13 18:00:00 NR -32.7490 53.9581 main 1086 1086 _____P________ -1 -32.7490 53.9581 99 3 124
1859042S32050 1859 3 SI MM NOT_NAMED 1859-02-13 21:00:00 NR -32.8386 54.1152 main 1101 1101 _____P________ -1 -32.8386 54.1152 99 3 124
1859042S32050 1859 3 SI MM NOT_NAMED 1859-02-14 00:00:00 NR -32.9274 54.2732 main 1122 1122 _____P________ -1 -32.9274 54.2732 99 3 123
1859042S32050 1859 3 SI MM NOT_NAMED 1859-02-14 03:00:00 NR -33.0149 54.4342 main 1136 1136 _____P________ -1 -33.0149 54.4342 99 3 122
1859042S32050 1859 3 SI MM NOT_NAMED 1859-02-14 06:00:00 NR -33.1000 54.6000 reunion main 1157 1157 _____O________ -1 -33.1000 54.6000 99 9.90000 3 119
1859042S32050 1859 3 SI MM NOT_NAMED 1859-02-14 09:00:00 NR -33.1758 54.7804 main 1177 1177 _____P________ -1 -33.1758 54.7804 99 3 116
1859042S32050 1859 3 SI MM NOT_NAMED 1859-02-14 12:00:00 NR -33.2490 54.9653 main 1190 1190 _____P________ -1 -33.2490 54.9653 99 3 115
1859042S32050 1859 3 SI MM NOT_NAMED 1859-02-14 15:00:00 NR -33.3208 55.1533 main 1211 1211 _____P________ -1 -33.3208 55.1533 99 3 114
1859042S32050 1859 3 SI MM NOT_NAMED 1859-02-14 18:00:00 NR -33.3924 55.3433 main 1225 1225 _____P________ -1 -33.3924 55.3433 99 3 114
1859042S32050 1859 3 SI MM NOT_NAMED 1859-02-14 21:00:00 NR -33.4650 55.5342 main 1246 1246 _____P________ -1 -33.4650 55.5342 99 4 115
1859042S32050 1859 3 SI MM NOT_NAMED 1859-02-15 00:00:00 NR -33.5396 55.7247 main 1259 1259 _____P________ -1 -33.5396 55.7247 99 4 116
1859042S32050 1859 3 SI MM NOT_NAMED 1859-02-15 03:00:00 NR -33.6176 55.9137 main 1280 1280 _____P________ -1 -33.6176 55.9137 99 4 117
1859042S32050 1859 3 SI MM NOT_NAMED 1859-02-15 06:00:00 NR -33.7000 56.1000 reunion main 1301 1301 _____O________ -1 -33.7000 56.1000 99 9.90000 3 120
1859042S32050 1859 3 SI MM NOT_NAMED 1859-02-15 09:00:00 NR -33.7865 56.2724 main 1322 1322 _____P________ -1 -33.7865 56.2724 99 3 122
1859042S32050 1859 3 SI MM NOT_NAMED 1859-02-15 12:00:00 NR -33.8768 56.4418 main 1336 1336 _____P________ -1 -33.8768 56.4418 99 3 123
1859042S32050 1859 3 SI MM NOT_NAMED 1859-02-15 15:00:00 NR -33.9709 56.6099 main 1357 1357 _____P________ -1 -33.9709 56.6099 99 3 124
1859042S32050 1859 3 SI MM NOT_NAMED 1859-02-15 18:00:00 NR -34.0689 56.7788 main 1378 1378 _____P________ -1 -34.0689 56.7788 99 3 125
1859042S32050 1859 3 SI MM NOT_NAMED 1859-02-15 21:00:00 NR -34.1709 56.9503 main 1399 1399 _____P________ -1 -34.1709 56.9503 99 4 126
1859042S32050 1859 3 SI MM NOT_NAMED 1859-02-16 00:00:00 NR -34.2767 57.1264 main 1413 1413 _____P________ -1 -34.2767 57.1264 99 4 126
1859042S32050 1859 3 SI MM NOT_NAMED 1859-02-16 03:00:00 NR -34.3864 57.3090 main 1434 1434 _____P________ -1 -34.3864 57.3090 99 4 126
1859042S32050 1859 3 SI MM NOT_NAMED 1859-02-16 06:00:00 NR -34.5000 57.5000 reunion main 1455 1455 _____O________ -1 -34.5000 57.5000 99 9.90000 4 126
1859042S32050 1859 3 SI MM NOT_NAMED 1859-02-16 09:00:00 NR -34.6174 57.7009 main 1476 1476 _____P________ -1 -34.6174 57.7009 99 4 125
1859042S32050 1859 3 SI MM NOT_NAMED 1859-02-16 12:00:00 NR -34.7380 57.9111 main 1497 1497 _____P________ -1 -34.7380 57.9111 99 4 125
1859042S32050 1859 3 SI MM NOT_NAMED 1859-02-16 15:00:00 NR -34.8614 58.1294 main 1526 1526 _____P________ -1 -34.8614 58.1294 99 4 124
1859042S32050 1859 3 SI MM NOT_NAMED 1859-02-16 18:00:00 NR -34.9869 58.3546 main 1542 1542 _____P________ -1 -34.9869 58.3546 99 5 124
1859042S32050 1859 3 SI MM NOT_NAMED 1859-02-16 21:00:00 NR -35.1141 58.5854 main 1557 1557 _____P________ -1 -35.1141 58.5854 99 5 124
1859042S32050 1859 3 SI MM NOT_NAMED 1859-02-17 00:00:00 NR -35.2424 58.8208 main 1571 1571 _____P________ -1 -35.2424 58.8208 99 5 124
1859042S32050 1859 3 SI MM NOT_NAMED 1859-02-17 03:00:00 NR -35.3712 59.0594 main 1599 1599 _____P________ -1 -35.3712 59.0594 99 5 123
1859042S32050 1859 3 SI MM NOT_NAMED 1859-02-17 06:00:00 NR -35.5000 59.3000 reunion main 1614 _____O________ -1 -35.5000 59.3000 99 9.90000 5 123

About IBTrACS Database

This database is a web-friendly format of International Best Track Archive for Climate Stewardship (IBTrACS), a global best track data archive curated by NOAA dating back to 1842.

Updated: 2021-12-06